sensor_id;sensor_type;location;lat;lon;timestamp;pressure;altitude;pressure_sealevel;temperature;humidity
21109;BME280;10712;52.944;9.098;2023-11-21T00:01:03;100837.28;;;17.23;78.10
21109;BME280;10712;52.944;9.098;2023-11-21T00:03:31;100837.41;;;17.22;78.21
21109;BME280;10712;52.944;9.098;2023-11-21T00:05:57;100830.69;;;17.27;78.09
21109;BME280;10712;52.944;9.098;2023-11-21T00:08:22;100827.00;;;17.28;77.96
21109;BME280;10712;52.944;9.098;2023-11-21T00:10:48;100830.81;;;17.26;77.87
21109;BME280;10712;52.944;9.098;2023-11-21T00:13:14;100832.56;;;17.37;77.53
21109;BME280;10712;52.944;9.098;2023-11-21T00:15:40;100828.09;;;17.26;77.71
21109;BME280;10712;52.944;9.098;2023-11-21T00:18:06;100831.19;;;17.21;77.72
21109;BME280;10712;52.944;9.098;2023-11-21T00:20:32;100830.94;;;17.24;77.91
21109;BME280;10712;52.944;9.098;2023-11-21T00:22:58;100837.16;;;17.25;77.96
21109;BME280;10712;52.944;9.098;2023-11-21T00:25:25;100839.53;;;17.18;78.03
21109;BME280;10712;52.944;9.098;2023-11-21T00:27:51;100838.78;;;17.16;78.18
21109;BME280;10712;52.944;9.098;2023-11-21T00:30:17;100832.19;;;17.20;78.11
21109;BME280;10712;52.944;9.098;2023-11-21T00:32:43;100842.47;;;17.15;78.12
21109;BME280;10712;52.944;9.098;2023-11-21T00:35:09;100838.09;;;17.14;78.34
21109;BME280;10712;52.944;9.098;2023-11-21T00:37:35;100835.38;;;17.14;78.36
21109;BME280;10712;52.944;9.098;2023-11-21T00:40:01;100837.81;;;17.17;78.23
21109;BME280;10712;52.944;9.098;2023-11-21T00:42:31;100834.53;;;17.14;78.35
21109;BME280;10712;52.944;9.098;2023-11-21T00:45:00;100834.66;;;17.12;78.45
21109;BME280;10712;52.944;9.098;2023-11-21T00:47:26;100844.44;;;17.13;78.44
21109;BME280;10712;52.944;9.098;2023-11-21T00:49:51;100846.41;;;17.11;78.54
21109;BME280;10712;52.944;9.098;2023-11-21T00:52:18;100842.72;;;17.12;78.48
21109;BME280;10712;52.944;9.098;2023-11-21T00:54:44;100842.84;;;17.11;78.60
21109;BME280;10712;52.944;9.098;2023-11-21T00:57:10;100856.19;;;17.12;78.61
21109;BME280;10712;52.944;9.098;2023-11-21T00:59:37;100857.16;;;17.11;78.60
21109;BME280;10712;52.944;9.098;2023-11-21T01:02:03;100854.34;;;17.13;78.67
21109;BME280;10712;52.944;9.098;2023-11-21T01:04:31;100861.47;;;17.14;78.70
21109;BME280;10712;52.944;9.098;2023-11-21T01:06:59;100866.22;;;17.10;78.72
21109;BME280;10712;52.944;9.098;2023-11-21T01:09:25;100867.69;;;17.14;78.60
21109;BME280;10712;52.944;9.098;2023-11-21T01:11:51;100875.50;;;17.17;78.66
21109;BME280;10712;52.944;9.098;2023-11-21T01:14:17;100870.41;;;17.14;78.78
21109;BME280;10712;52.944;9.098;2023-11-21T01:16:43;100875.50;;;17.17;78.63
21109;BME280;10712;52.944;9.098;2023-11-21T01:19:09;100871.09;;;17.16;78.72
21109;BME280;10712;52.944;9.098;2023-11-21T01:21:35;100876.25;;;17.19;78.68
21109;BME280;10712;52.944;9.098;2023-11-21T01:24:01;100881.88;;;17.16;78.66
21109;BME280;10712;52.944;9.098;2023-11-21T01:26:26;100884.72;;;17.15;78.77
21109;BME280;10712;52.944;9.098;2023-11-21T01:28:52;100883.13;;;17.12;78.79
21109;BME280;10712;52.944;9.098;2023-11-21T01:31:18;100882.13;;;17.13;78.94
21109;BME280;10712;52.944;9.098;2023-11-21T01:33:46;100883.13;;;17.12;79.02
21109;BME280;10712;52.944;9.098;2023-11-21T01:36:12;100881.88;;;17.16;79.02
21109;BME280;10712;52.944;9.098;2023-11-21T01:38:38;100890.22;;;17.13;78.86
21109;BME280;10712;52.944;9.098;2023-11-21T01:41:04;100890.97;;;17.04;79.22
21109;BME280;10712;52.944;9.098;2023-11-21T01:43:31;100884.38;;;16.97;79.61
21109;BME280;10712;52.944;9.098;2023-11-21T01:45:58;100885.63;;;16.93;79.84
21109;BME280;10712;52.944;9.098;2023-11-21T01:48:25;100882.66;;;17.07;79.13
21109;BME280;10712;52.944;9.098;2023-11-21T01:50:51;100883.84;;;17.14;78.98
21109;BME280;10712;52.944;9.098;2023-11-21T01:53:17;100896.31;;;17.15;78.89
21109;BME280;10712;52.944;9.098;2023-11-21T01:55:46;100885.53;;;17.15;78.89
21109;BME280;10712;52.944;9.098;2023-11-21T01:58:12;100889.22;;;17.14;78.97
21109;BME280;10712;52.944;9.098;2023-11-21T02:00:42;100895.31;;;17.16;78.80
21109;BME280;10712;52.944;9.098;2023-11-21T02:03:09;100901.69;;;17.15;78.99
21109;BME280;10712;52.944;9.098;2023-11-21T02:05:36;100901.09;;;17.12;78.75
21109;BME280;10712;52.944;9.098;2023-11-21T02:08:02;100909.06;;;17.13;78.85
21109;BME280;10712;52.944;9.098;2023-11-21T02:10:30;100906.09;;;17.16;78.91
21109;BME280;10712;52.944;9.098;2023-11-21T02:12:57;100904.53;;;17.14;78.90
21109;BME280;10712;52.944;9.098;2023-11-21T02:15:24;100908.78;;;17.16;78.87
21109;BME280;10712;52.944;9.098;2023-11-21T02:17:54;100900.25;;;17.11;78.94
21109;BME280;10712;52.944;9.098;2023-11-21T02:20:23;100909.31;;;17.10;78.96
21109;BME280;10712;52.944;9.098;2023-11-21T02:22:55;100915.53;;;17.11;78.94
21109;BME280;10712;52.944;9.098;2023-11-21T02:25:33;100926.31;;;17.11;78.92
21109;BME280;10712;52.944;9.098;2023-11-21T02:28:03;100925.44;;;17.10;79.00
21109;BME280;10712;52.944;9.098;2023-11-21T02:30:30;100925.44;;;17.10;78.89
21109;BME280;10712;52.944;9.098;2023-11-21T02:33:02;100925.44;;;17.10;78.98
21109;BME280;10712;52.944;9.098;2023-11-21T02:35:28;100927.28;;;17.10;79.18
21109;BME280;10712;52.944;9.098;2023-11-21T02:37:58;100933.53;;;17.10;79.02
21109;BME280;10712;52.944;9.098;2023-11-21T02:40:24;100932.56;;;17.11;79.05
21109;BME280;10712;52.944;9.098;2023-11-21T02:42:52;100939.66;;;17.12;79.08
21109;BME280;10712;52.944;9.098;2023-11-21T02:45:20;100931.56;;;17.12;79.03
21109;BME280;10712;52.944;9.098;2023-11-21T02:47:47;100932.56;;;17.11;79.26
21109;BME280;10712;52.944;9.098;2023-11-21T02:50:14;100937.81;;;17.13;79.18
21109;BME280;10712;52.944;9.098;2023-11-21T02:52:40;100935.97;;;17.13;79.15
21109;BME280;10712;52.944;9.098;2023-11-21T02:55:06;100937.69;;;17.14;79.31
21109;BME280;10712;52.944;9.098;2023-11-21T02:57:35;100942.81;;;17.17;79.22
21109;BME280;10712;52.944;9.098;2023-11-21T03:00:01;100948.94;;;17.19;79.35
21109;BME280;10712;52.944;9.098;2023-11-21T03:02:28;100946.25;;;17.19;79.34
21109;BME280;10712;52.944;9.098;2023-11-21T03:04:54;100948.53;;;17.24;79.42
21109;BME280;10712;52.944;9.098;2023-11-21T03:07:19;100946.13;;;17.21;79.42
21109;BME280;10712;52.944;9.098;2023-11-21T03:09:46;100944.75;;;17.15;79.80
21109;BME280;10712;52.944;9.098;2023-11-21T03:12:12;100953.34;;;17.20;79.53
21109;BME280;10712;52.944;9.098;2023-11-21T03:14:39;100954.53;;;17.27;79.52
21109;BME280;10712;52.944;9.098;2023-11-21T03:17:05;100953.06;;;17.23;79.62
21109;BME280;10712;52.944;9.098;2023-11-21T03:19:32;100957.09;;;17.29;79.67
21109;BME280;10712;52.944;9.098;2023-11-21T03:21:58;100962.22;;;17.32;79.54
21109;BME280;10712;52.944;9.098;2023-11-21T03:24:25;100960.63;;;17.29;79.77
21109;BME280;10712;52.944;9.098;2023-11-21T03:26:52;100959.94;;;17.27;79.74
21109;BME280;10712;52.944;9.098;2023-11-21T03:29:18;100967.28;;;17.25;80.01
21109;BME280;10712;52.944;9.098;2023-11-21T03:31:44;100969.84;;;17.27;79.90
21109;BME280;10712;52.944;9.098;2023-11-21T03:34:19;100978.78;;;17.27;79.97
21109;BME280;10712;52.944;9.098;2023-11-21T03:36:45;100978.03;;;17.25;80.19
21109;BME280;10712;52.944;9.098;2023-11-21T03:39:12;100983.44;;;17.25;80.17
21109;BME280;10712;52.944;9.098;2023-11-21T03:41:37;100983.44;;;17.25;80.09
21109;BME280;10712;52.944;9.098;2023-11-21T03:44:03;100991.50;;;17.25;79.96
21109;BME280;10712;52.944;9.098;2023-11-21T03:46:29;100992.47;;;17.24;80.10
21109;BME280;10712;52.944;9.098;2023-11-21T03:48:55;101005.22;;;17.11;80.26
21109;BME280;10712;52.944;9.098;2023-11-21T03:51:21;101006.56;;;17.17;80.14
21109;BME280;10712;52.944;9.098;2023-11-21T03:53:47;101002.78;;;17.08;80.10
21109;BME280;10712;52.944;9.098;2023-11-21T03:56:14;101015.53;;;17.06;80.02
21109;BME280;10712;52.944;9.098;2023-11-21T03:58:40;101018.94;;;17.08;79.90
21109;BME280;10712;52.944;9.098;2023-11-21T04:01:06;101024.09;;;17.00;79.98
21109;BME280;10712;52.944;9.098;2023-11-21T04:03:32;101026.53;;;17.03;79.81
21109;BME280;10712;52.944;9.098;2023-11-21T04:05:57;101028.75;;;16.98;79.73
21109;BME280;10712;52.944;9.098;2023-11-21T04:08:23;101040.50;;;16.97;79.60
21109;BME280;10712;52.944;9.098;2023-11-21T04:10:49;101043.19;;;16.97;79.55
21109;BME280;10712;52.944;9.098;2023-11-21T04:13:15;101058.81;;;16.81;79.77
21109;BME280;10712;52.944;9.098;2023-11-21T04:15:40;101060.31;;;16.85;79.71
21109;BME280;10712;52.944;9.098;2023-11-21T04:18:06;101060.31;;;16.85;79.56
21109;BME280;10712;52.944;9.098;2023-11-21T04:20:32;101064.19;;;16.81;79.52
21109;BME280;10712;52.944;9.098;2023-11-21T04:22:58;101070.03;;;16.52;80.00
21109;BME280;10712;52.944;9.098;2023-11-21T04:25:23;101077.34;;;16.50;80.31
21109;BME280;10712;52.944;9.098;2023-11-21T04:27:50;101071.97;;;16.50;80.28
21109;BME280;10712;52.944;9.098;2023-11-21T04:30:16;101081.25;;;16.46;80.30
21109;BME280;10712;52.944;9.098;2023-11-21T04:32:42;101097.63;;;16.43;80.29
21109;BME280;10712;52.944;9.098;2023-11-21T04:35:08;101096.53;;;16.46;80.19
21109;BME280;10712;52.944;9.098;2023-11-21T04:37:34;101097.84;;;16.40;80.15
21109;BME280;10712;52.944;9.098;2023-11-21T04:40:00;101087.72;;;16.44;80.01
21109;BME280;10712;52.944;9.098;2023-11-21T04:42:26;101099.56;;;16.41;80.08
21109;BME280;10712;52.944;9.098;2023-11-21T04:44:52;101092.72;;;16.37;80.26
21109;BME280;10712;52.944;9.098;2023-11-21T04:47:18;101105.22;;;16.38;80.11
21109;BME280;10712;52.944;9.098;2023-11-21T04:49:46;101106.03;;;16.39;80.06
21109;BME280;10712;52.944;9.098;2023-11-21T04:52:15;101119.38;;;16.40;80.19
21109;BME280;10712;52.944;9.098;2023-11-21T04:54:41;101115.31;;;16.35;79.98
21109;BME280;10712;52.944;9.098;2023-11-21T04:57:07;101112.13;;;16.30;79.90
21109;BME280;10712;52.944;9.098;2023-11-21T04:59:35;101116.88;;;16.26;79.82
21109;BME280;10712;52.944;9.098;2023-11-21T05:02:01;101121.47;;;16.13;79.94
21109;BME280;10712;52.944;9.098;2023-11-21T05:04:27;101125.38;;;16.09;79.86
21109;BME280;10712;52.944;9.098;2023-11-21T05:06:53;101122.41;;;16.01;79.47
21109;BME280;10712;52.944;9.098;2023-11-21T05:09:19;101133.31;;;15.87;79.44
21109;BME280;10712;52.944;9.098;2023-11-21T05:11:45;101141.78;;;15.93;79.58
21109;BME280;10712;52.944;9.098;2023-11-21T05:14:11;101149.31;;;15.88;79.39
21109;BME280;10712;52.944;9.098;2023-11-21T05:16:37;101147.72;;;15.86;79.32
21109;BME280;10712;52.944;9.098;2023-11-21T05:19:03;101155.25;;;15.81;79.34
21109;BME280;10712;52.944;9.098;2023-11-21T05:21:30;101161.38;;;15.83;79.28
21109;BME280;10712;52.944;9.098;2023-11-21T05:23:58;101164.94;;;15.83;79.23
21109;BME280;10712;52.944;9.098;2023-11-21T05:26:25;101162.97;;;15.85;79.13
21109;BME280;10712;52.944;9.098;2023-11-21T05:28:50;101172.25;;;15.81;78.89
21109;BME280;10712;52.944;9.098;2023-11-21T05:31:16;101170.41;;;15.82;79.02
21109;BME280;10712;52.944;9.098;2023-11-21T05:33:42;101169.31;;;15.84;79.18
21109;BME280;10712;52.944;9.098;2023-11-21T05:36:08;101174.06;;;15.81;79.09
21109;BME280;10712;52.944;9.098;2023-11-21T05:38:36;101181.63;;;15.75;79.19
21109;BME280;10712;52.944;9.098;2023-11-21T05:41:03;101184.75;;;15.69;79.19
21109;BME280;10712;52.944;9.098;2023-11-21T05:43:30;101199.66;;;15.73;78.68
21109;BME280;10712;52.944;9.098;2023-11-21T05:45:57;101201.59;;;15.71;78.82
21109;BME280;10712;52.944;9.098;2023-11-21T05:48:23;101209.66;;;15.71;79.03
21109;BME280;10712;52.944;9.098;2023-11-21T05:50:51;101214.16;;;15.71;78.98
21109;BME280;10712;52.944;9.098;2023-11-21T05:53:17;101214.06;;;15.72;78.95
21109;BME280;10712;52.944;9.098;2023-11-21T05:55:42;101222.75;;;15.63;78.85
21109;BME280;10712;52.944;9.098;2023-11-21T05:58:08;101224.06;;;15.58;78.91
21109;BME280;10712;52.944;9.098;2023-11-21T06:00:34;101233.22;;;15.55;78.76
21109;BME280;10712;52.944;9.098;2023-11-21T06:03:01;101244.84;;;15.56;78.66
21109;BME280;10712;52.944;9.098;2023-11-21T06:05:27;101253.41;;;15.48;78.69
21109;BME280;10712;52.944;9.098;2023-11-21T06:07:55;101259.94;;;15.44;78.50
21109;BME280;10712;52.944;9.098;2023-11-21T06:10:24;101271.63;;;15.43;78.14
21109;BME280;10712;52.944;9.098;2023-11-21T06:12:51;101262.84;;;15.41;78.16
21109;BME280;10712;52.944;9.098;2023-11-21T06:15:17;101269.28;;;15.26;78.02
21109;BME280;10712;52.944;9.098;2023-11-21T06:17:45;101271.19;;;15.24;77.92
21109;BME280;10712;52.944;9.098;2023-11-21T06:20:15;101280.63;;;15.17;78.16
21109;BME280;10712;52.944;9.098;2023-11-21T06:22:46;101284.09;;;15.19;77.89
21109;BME280;10712;52.944;9.098;2023-11-21T06:25:13;101284.72;;;15.10;77.82
21109;BME280;10712;52.944;9.098;2023-11-21T06:27:44;101296.09;;;15.13;77.79
21109;BME280;10712;52.944;9.098;2023-11-21T06:30:12;101293.72;;;15.09;77.76
21109;BME280;10712;52.944;9.098;2023-11-21T06:32:39;101309.81;;;15.09;77.81
21109;BME280;10712;52.944;9.098;2023-11-21T06:35:07;101295.97;;;15.02;77.75
21109;BME280;10712;52.944;9.098;2023-11-21T06:37:34;101309.28;;;15.04;77.72
21109;BME280;10712;52.944;9.098;2023-11-21T06:40:01;101311.09;;;15.03;77.61
21109;BME280;10712;52.944;9.098;2023-11-21T06:42:29;101315.59;;;15.03;77.51
21109;BME280;10712;52.944;9.098;2023-11-21T06:44:56;101319.47;;;14.98;77.50
21109;BME280;10712;52.944;9.098;2023-11-21T06:47:25;101328.06;;;15.04;77.39
21109;BME280;10712;52.944;9.098;2023-11-21T06:49:52;101333.84;;;14.97;77.31
21109;BME280;10712;52.944;9.098;2023-11-21T06:52:21;101334.47;;;14.88;77.36
21109;BME280;10712;52.944;9.098;2023-11-21T06:54:47;101347.00;;;14.88;77.38
21109;BME280;10712;52.944;9.098;2023-11-21T06:57:15;101354.00;;;14.90;77.35
21109;BME280;10712;52.944;9.098;2023-11-21T06:59:41;101354.78;;;14.92;77.23
21109;BME280;10712;52.944;9.098;2023-11-21T07:02:07;101367.22;;;14.93;77.31
21109;BME280;10712;52.944;9.098;2023-11-21T07:04:34;101367.09;;;14.95;77.22
21109;BME280;10712;52.944;9.098;2023-11-21T07:07:00;101366.06;;;14.97;77.18
21109;BME280;10712;52.944;9.098;2023-11-21T07:09:26;101378.06;;;14.92;77.28
21109;BME280;10712;52.944;9.098;2023-11-21T07:11:52;101386.00;;;14.93;77.33
21109;BME280;10712;52.944;9.098;2023-11-21T07:14:18;101389.66;;;14.92;77.41
21109;BME280;10712;52.944;9.098;2023-11-21T07:16:46;101397.78;;;14.91;77.19
21109;BME280;10712;52.944;9.098;2023-11-21T07:19:12;101400.38;;;14.92;77.43
21109;BME280;10712;52.944;9.098;2023-11-21T07:21:39;101400.56;;;14.89;77.18
21109;BME280;10712;52.944;9.098;2023-11-21T07:24:07;101408.63;;;14.89;77.21
21109;BME280;10712;52.944;9.098;2023-11-21T07:26:34;101407.66;;;14.90;77.23
21109;BME280;10712;52.944;9.098;2023-11-21T07:29:01;101411.97;;;14.93;77.19
21109;BME280;10712;52.944;9.098;2023-11-21T07:31:28;101420.97;;;14.92;77.34
21109;BME280;10712;52.944;9.098;2023-11-21T07:33:55;101427.63;;;14.86;77.26
21109;BME280;10712;52.944;9.098;2023-11-21T07:36:24;101425.66;;;14.88;77.30
21109;BME280;10712;52.944;9.098;2023-11-21T07:38:50;101429.69;;;14.95;77.05
21109;BME280;10712;52.944;9.098;2023-11-21T07:41:18;101443.59;;;14.88;77.21
21109;BME280;10712;52.944;9.098;2023-11-21T07:43:45;101436.63;;;14.85;77.16
21109;BME280;10712;52.944;9.098;2023-11-21T07:46:12;101442.72;;;14.87;77.26
21109;BME280;10712;52.944;9.098;2023-11-21T07:48:42;101443.81;;;14.85;77.21
21109;BME280;10712;52.944;9.098;2023-11-21T07:51:08;101442.72;;;14.87;77.17
21109;BME280;10712;52.944;9.098;2023-11-21T07:53:36;101443.13;;;14.81;77.03
21109;BME280;10712;52.944;9.098;2023-11-21T07:56:07;101445.81;;;14.81;77.09
21109;BME280;10712;52.944;9.098;2023-11-21T07:58:36;101453.13;;;14.79;77.05
21109;BME280;10712;52.944;9.098;2023-11-21T08:01:03;101459.22;;;14.81;77.20
21109;BME280;10712;52.944;9.098;2023-11-21T08:03:30;101454.63;;;14.83;77.23
21109;BME280;10712;52.944;9.098;2023-11-21T08:05:57;101463.63;;;14.82;77.18
21109;BME280;10712;52.944;9.098;2023-11-21T08:08:24;101467.28;;;14.81;77.01
21109;BME280;10712;52.944;9.098;2023-11-21T08:10:50;101460.94;;;14.82;77.21
21109;BME280;10712;52.944;9.098;2023-11-21T08:13:28;101466.50;;;14.93;76.78
21109;BME280;10712;52.944;9.098;2023-11-21T08:15:57;101482.84;;;15.03;76.45
21109;BME280;10712;52.944;9.098;2023-11-21T08:18:32;101478.34;;;15.04;76.48
21109;BME280;10712;52.944;9.098;2023-11-21T08:21:00;101482.53;;;15.08;76.25
21109;BME280;10712;52.944;9.098;2023-11-21T08:23:26;101493.28;;;15.08;76.45
21109;BME280;10712;52.944;9.098;2023-11-21T08:25:53;101491.66;;;15.05;76.39
21109;BME280;10712;52.944;9.098;2023-11-21T08:28:20;101501.53;;;15.05;76.41
21109;BME280;10712;52.944;9.098;2023-11-21T08:30:48;101504.00;;;15.08;76.44
21109;BME280;10712;52.944;9.098;2023-11-21T08:33:14;101507.47;;;15.10;76.17
21109;BME280;10712;52.944;9.098;2023-11-21T08:35:39;101517.63;;;15.05;76.29
21109;BME280;10712;52.944;9.098;2023-11-21T08:38:05;101514.19;;;15.03;76.32
21109;BME280;10712;52.944;9.098;2023-11-21T08:40:31;101512.91;;;15.08;76.17
21109;BME280;10712;52.944;9.098;2023-11-21T08:42:57;101519.38;;;15.06;76.52
21109;BME280;10712;52.944;9.098;2023-11-21T08:45:25;101530.56;;;15.12;76.33
21109;BME280;10712;52.944;9.098;2023-11-21T08:47:54;101531.44;;;15.13;76.23
21109;BME280;10712;52.944;9.098;2023-11-21T08:50:20;101534.97;;;15.13;76.16
21109;BME280;10712;52.944;9.098;2023-11-21T08:52:46;101537.75;;;15.12;76.27
21109;BME280;10712;52.944;9.098;2023-11-21T08:55:12;101547.53;;;15.13;76.28
21109;BME280;10712;52.944;9.098;2023-11-21T08:57:39;101552.13;;;15.11;76.40
21109;BME280;10712;52.944;9.098;2023-11-21T09:00:09;101558.06;;;15.16;76.17
21109;BME280;10712;52.944;9.098;2023-11-21T09:02:40;101561.03;;;15.11;76.27
21109;BME280;10712;52.944;9.098;2023-11-21T09:05:10;101560.88;;;15.14;76.09
21109;BME280;10712;52.944;9.098;2023-11-21T09:07:38;101563.34;;;15.17;76.17
21109;BME280;10712;52.944;9.098;2023-11-21T09:10:05;101563.69;;;15.25;75.83
21109;BME280;10712;52.944;9.098;2023-11-21T09:12:36;101571.28;;;15.19;76.14
21109;BME280;10712;52.944;9.098;2023-11-21T09:15:07;101569.56;;;15.18;76.06
21109;BME280;10712;52.944;9.098;2023-11-21T09:17:35;101573.19;;;15.17;76.15
21109;BME280;10712;52.944;9.098;2023-11-21T09:20:02;101585.97;;;15.13;76.10
21109;BME280;10712;52.944;9.098;2023-11-21T09:22:31;101590.47;;;15.13;75.90
21109;BME280;10712;52.944;9.098;2023-11-21T09:24:58;101596.03;;;15.10;75.76
21109;BME280;10712;52.944;9.098;2023-11-21T09:27:24;101595.06;;;15.11;75.69
21109;BME280;10712;52.944;9.098;2023-11-21T09:29:51;101605.31;;;15.18;75.68
21109;BME280;10712;52.944;9.098;2023-11-21T09:32:18;101609.66;;;15.21;75.74
21109;BME280;10712;52.944;9.098;2023-11-21T09:34:44;101625.53;;;15.24;75.96
21109;BME280;10712;52.944;9.098;2023-11-21T09:37:10;101629.88;;;15.26;75.79
21109;BME280;10712;52.944;9.098;2023-11-21T09:39:36;101636.84;;;15.29;75.87
21109;BME280;10712;52.944;9.098;2023-11-21T09:47:27;101654.41;;;15.34;75.78
21109;BME280;10712;52.944;9.098;2023-11-21T09:49:56;101659.97;;;15.31;75.75
21109;BME280;10712;52.944;9.098;2023-11-21T09:52:28;101655.28;;;15.35;75.77
21109;BME280;10712;52.944;9.098;2023-11-21T09:54:55;101659.09;;;15.31;75.81
21109;BME280;10712;52.944;9.098;2023-11-21T09:57:25;101656.97;;;15.36;75.66
21109;BME280;10712;52.944;9.098;2023-11-21T09:59:53;101656.97;;;15.36;75.85
21109;BME280;10712;52.944;9.098;2023-11-21T10:02:28;101661.13;;;15.42;75.67
21109;BME280;10712;52.944;9.098;2023-11-21T10:04:56;101659.25;;;15.42;75.61
21109;BME280;10712;52.944;9.098;2023-11-21T10:07:23;101654.47;;;15.47;75.74
21109;BME280;10712;52.944;9.098;2023-11-21T10:09:51;101668.00;;;15.46;75.81
21109;BME280;10712;52.944;9.098;2023-11-21T10:12:19;101660.25;;;15.41;75.62
21109;BME280;10712;52.944;9.098;2023-11-21T10:14:49;101670.97;;;15.41;75.71
21109;BME280;10712;52.944;9.098;2023-11-21T10:17:19;101669.16;;;15.42;75.39
21109;BME280;10712;52.944;9.098;2023-11-21T10:19:48;101674.63;;;15.40;75.31
21109;BME280;10712;52.944;9.098;2023-11-21T10:22:15;101672.69;;;15.42;75.41
21109;BME280;10712;52.944;9.098;2023-11-21T10:24:42;101672.69;;;15.42;75.39
21109;BME280;10712;52.944;9.098;2023-11-21T10:27:09;101667.31;;;15.42;75.08
21109;BME280;10712;52.944;9.098;2023-11-21T10:29:35;101677.69;;;15.48;75.37
21109;BME280;10712;52.944;9.098;2023-11-21T10:32:04;101687.13;;;15.55;75.43
21109;BME280;10712;52.944;9.098;2023-11-21T10:34:31;101678.28;;;15.53;74.71
21109;BME280;10712;52.944;9.098;2023-11-21T10:36:57;101688.22;;;15.51;74.58
21109;BME280;10712;52.944;9.098;2023-11-21T10:39:24;101689.38;;;15.47;74.47
21109;BME280;10712;52.944;9.098;2023-11-21T10:41:55;101686.88;;;15.44;74.40
21109;BME280;10712;52.944;9.098;2023-11-21T10:44:21;101689.94;;;15.52;74.15
21109;BME280;10712;52.944;9.098;2023-11-21T10:46:55;101683.06;;;15.48;73.91
21109;BME280;10712;52.944;9.098;2023-11-21T10:49:24;101689.94;;;15.52;74.01
21109;BME280;10712;52.944;9.098;2023-11-21T10:51:52;101694.41;;;15.53;74.21
21109;BME280;10712;52.944;9.098;2023-11-21T10:54:24;101698.97;;;15.51;74.14
21109;BME280;10712;52.944;9.098;2023-11-21T10:56:56;101696.13;;;15.54;74.16
21109;BME280;10712;52.944;9.098;2023-11-21T10:59:23;101702.25;;;15.56;74.46
21109;BME280;10712;52.944;9.098;2023-11-21T11:01:51;101700.34;;;15.58;74.28
21109;BME280;10712;52.944;9.098;2023-11-21T11:04:19;101694.78;;;15.61;74.18
21109;BME280;10712;52.944;9.098;2023-11-21T11:06:56;101701.66;;;15.65;73.92
21109;BME280;10712;52.944;9.098;2023-11-21T11:09:23;101699.94;;;15.64;74.00
21109;BME280;10712;52.944;9.098;2023-11-21T11:11:51;101701.66;;;15.65;73.99
21109;BME280;10712;52.944;9.098;2023-11-21T11:14:18;101706.09;;;15.66;74.16
21109;BME280;10712;52.944;9.098;2023-11-21T11:16:45;101705.78;;;15.71;74.26
21109;BME280;10712;52.944;9.098;2023-11-21T11:19:11;101707.31;;;15.75;74.25
21109;BME280;10712;52.944;9.098;2023-11-21T11:30:45;101724.88;;;15.66;73.52
21109;BME280;10712;52.944;9.098;2023-11-21T11:36:29;101738.41;;;15.65;73.04
21109;BME280;10712;52.944;9.098;2023-11-21T11:38:57;101730.91;;;15.70;73.08
21109;BME280;10712;52.944;9.098;2023-11-21T11:41:30;101738.69;;;15.74;73.31
21109;BME280;10712;52.944;9.098;2023-11-21T11:44:00;101728.31;;;15.83;73.49
21109;BME280;10712;52.944;9.098;2023-11-21T11:46:45;101734.25;;;15.88;73.56
21109;BME280;10712;52.944;9.098;2023-11-21T11:49:27;101729.66;;;15.90;73.64
21109;BME280;10712;52.944;9.098;2023-11-21T11:52:34;101726.44;;;15.97;73.40
21109;BME280;10712;52.944;9.098;2023-11-21T11:55:02;101729.13;;;15.97;73.36
21109;BME280;10712;52.944;9.098;2023-11-21T11:57:31;101732.91;;;15.95;73.31
21109;BME280;10712;52.944;9.098;2023-11-21T12:02:55;101744.13;;;16.01;73.34
21109;BME280;10712;52.944;9.098;2023-11-21T12:05:26;101741.13;;;16.06;73.38
21109;BME280;10712;52.944;9.098;2023-11-21T12:08:01;101735.66;;;16.07;73.23
21109;BME280;10712;52.944;9.098;2023-11-21T12:10:36;101745.53;;;16.07;73.17
21109;BME280;10712;52.944;9.098;2023-11-21T12:13:10;101741.78;;;16.09;73.38
21109;BME280;10712;52.944;9.098;2023-11-21T12:15:38;101738.03;;;16.12;72.97
21109;BME280;10712;52.944;9.098;2023-11-21T12:18:04;101747.81;;;16.13;72.77
21109;BME280;10712;52.944;9.098;2023-11-21T12:20:32;101758.47;;;16.14;72.61
21109;BME280;10712;52.944;9.098;2023-11-21T12:22:59;101763.41;;;16.08;72.38
21109;BME280;10712;52.944;9.098;2023-11-21T12:25:28;101769.63;;;16.08;72.28
21109;BME280;10712;52.944;9.098;2023-11-21T12:27:56;101772.63;;;16.04;72.08
21109;BME280;10712;52.944;9.098;2023-11-21T12:30:28;101776.47;;;16.00;71.74
21109;BME280;10712;52.944;9.098;2023-11-21T12:32:58;101780.09;;;15.99;71.90
21109;BME280;10712;52.944;9.098;2023-11-21T12:35:27;101789.00;;;16.13;71.89
21109;BME280;10712;52.944;9.098;2023-11-21T12:37:56;101784.13;;;16.06;71.96
21109;BME280;10712;52.944;9.098;2023-11-21T12:40:26;101795.75;;;16.06;71.93
21109;BME280;10712;52.944;9.098;2023-11-21T12:42:56;101801.03;;;16.08;72.00
21109;BME280;10712;52.944;9.098;2023-11-21T12:45:28;101803.72;;;16.08;71.71
21109;BME280;10712;52.944;9.098;2023-11-21T12:48:04;101799.69;;;16.01;71.86
21109;BME280;10712;52.944;9.098;2023-11-21T12:50:35;101802.00;;;15.93;71.69
21109;BME280;10712;52.944;9.098;2023-11-21T12:53:07;101814.88;;;15.88;71.93
21109;BME280;10712;52.944;9.098;2023-11-21T12:55:35;101816.78;;;15.86;71.79
21109;BME280;10712;52.944;9.098;2023-11-21T12:58:07;101811.63;;;15.83;71.89
21109;BME280;10712;52.944;9.098;2023-11-21T13:00:43;101816.31;;;15.79;72.09
21109;BME280;10712;52.944;9.098;2023-11-21T13:03:12;101813.31;;;15.84;72.07
21109;BME280;10712;52.944;9.098;2023-11-21T13:05:44;101814.88;;;15.88;72.06
21109;BME280;10712;52.944;9.098;2023-11-21T13:08:12;101815.94;;;15.85;72.06
21109;BME280;10712;52.944;9.098;2023-11-21T13:10:41;101821.13;;;15.88;72.16
21109;BME280;10712;52.944;9.098;2023-11-21T13:13:11;101823.50;;;15.93;72.19